Historique des mesures à Cassis (13260), France
Quotidien Résumé Avril 9, 2017 Unités:  US    Métrique   Métrique/US
« Précédent (Jour)
Suivant (Jour) »
Quotidien Hebdomadaire Mensuel Annuel Période au choix
  Maximum: Minimum: Moyenne:
Température: 32 °F 54.7 °F 59.9 °F
Point de rosée: 32 °F 38.8 °F 47.3 °F
Humidité: Humidity % 54 % 60 %
Vitesse du vent: WindSpeedKMH mph 0.0 mph 2.1 mph
Rafales: WindSpeedGustKMH mph - -
Vent:- - SSE
Pression: 0 in 30.1 in -
Précipitations: 0 in    
Historical Graphs
 
 
Mesures pour : Avril 9, 2017
Heure Temperature Point de rosée Pression Vent Vitesse du vent Rafales Humidité Pluie (par heure) Conditions
32 °F 32 °F 0 in Calm     Humidity % 0 in SoftwareType W/m2
00:11 55.4 °F 45.5 °F 30.2 in North 2.6 mph 2.6 mph 69 % 0 in open2300-1.11 W/m2
01:11 55.2 °F 43.5 °F 30.2 in Calm   3.5 mph 65 % 0 in open2300-1.11 W/m2
02:11 56.1 °F 44.1 °F 30.1 in Calm   3.2 mph 64 % 0 in open2300-1.11 W/m2
03:11 55.8 °F 42.4 °F 30.1 in NNE 2.6 mph 2.6 mph 61 % 0 in open2300-1.11 W/m2
04:11 55 °F 40.8 °F 30.1 in Calm   9.3 mph 59 % 0 in open2300-1.11 W/m2
05:11 55 °F 39.6 °F 30.1 in NNE 1.4 mph 2.1 mph 56 % 0 in open2300-1.11 W/m2
06:11 55.2 °F 38.8 °F 30.1 in Calm   8.2 mph 54 % 0 in open2300-1.11 W/m2
08:11 54.7 °F 39.2 °F 30.2 in NNE 2.1 mph 2.1 mph 56 % 0 in open2300-1.11 W/m2
09:11 58.1 °F 43 °F 30.2 in NE 3.5 mph 3.5 mph 57 % 0 in open2300-1.11 W/m2
10:11 59.5 °F 47.8 °F 30.2 in SW 4.3 mph 4.3 mph 65 % 0 in open2300-1.11 W/m2
11:11 63.5 °F 53.2 °F 30.2 in SSE 2.1 mph 4.3 mph 69 % 0 in open2300-1.11 W/m2
12:11 67.8 °F 54.3 °F 30.2 in SSE 2.1 mph 9.0 mph 62 % 0 in open2300-1.11 W/m2
13:11 68.4 °F 56.5 °F 30.2 in SE 2.1 mph 2.9 mph 66 % 0 in open2300-1.11 W/m2
14:11 69.1 °F 56.3 °F 30.2 in South 4.7 mph 5.0 mph 64 % 0 in open2300-1.11 W/m2
15:11 68.9 °F 56.1 °F 30.2 in SW 6.1 mph 6.1 mph 64 % 0 in open2300-1.11 W/m2
16:11 68 °F 54 °F 30.2 in SSE 3.5 mph 5.0 mph 61 % 0 in open2300-1.11 W/m2
17:11 67.1 °F 53.6 °F 30.2 in SSE 3.2 mph 8.7 mph 62 % 0 in open2300-1.11 W/m2
18:11 66 °F 52.2 °F 30.2 in SSE 5.0 mph 5.0 mph 61 % 0 in open2300-1.11 W/m2
19:11 64.9 °F 52.3 °F 30.2 in Calm   2.6 mph 64 % 0 in open2300-1.11 W/m2
20:11 63.1 °F 52.3 °F 30.2 in Calm   3.5 mph 68 % 0 in open2300-1.11 W/m2
21:11 60.1 °F 47.8 °F 30.2 in Calm   2.1 mph 64 % 0 in open2300-1.11 W/m2
22:11 59.7 °F 45.3 °F 30.2 in NNW 3.5 mph 3.5 mph 59 % 0 in open2300-1.11 W/m2
23:11 59.2 °F 45.3 °F 30.2 in NNW 1.4 mph 1.4 mph 60 % 0 in open2300-1.11 W/m2
Observations météo à CASSIS
WU-History script by Weather Underground - 1 mb